sensor_id;sensor_type;location;lat;lon;timestamp;P1;durP1;ratioP1;P2;durP2;ratioP2
11197;SDS011;5655;48.744;9.162;2023-05-28T00:00:27;7.00;;;4.30;;
11197;SDS011;5655;48.744;9.162;2023-05-28T00:02:52;7.00;;;3.90;;
11197;SDS011;5655;48.744;9.162;2023-05-28T00:05:17;7.28;;;4.03;;
11197;SDS011;5655;48.744;9.162;2023-05-28T00:07:43;7.28;;;4.00;;
11197;SDS011;5655;48.744;9.162;2023-05-28T00:10:08;6.17;;;3.43;;
11197;SDS011;5655;48.744;9.162;2023-05-28T00:12:34;8.55;;;4.07;;
11197;SDS011;5655;48.744;9.162;2023-05-28T00:14:59;9.73;;;4.33;;
11197;SDS011;5655;48.744;9.162;2023-05-28T00:17:24;8.20;;;4.60;;
11197;SDS011;5655;48.744;9.162;2023-05-28T00:19:50;8.17;;;4.30;;
11197;SDS011;5655;48.744;9.162;2023-05-28T00:22:15;8.27;;;4.32;;
11197;SDS011;5655;48.744;9.162;2023-05-28T00:24:41;7.18;;;4.20;;
11197;SDS011;5655;48.744;9.162;2023-05-28T00:27:06;8.20;;;3.87;;
11197;SDS011;5655;48.744;9.162;2023-05-28T00:29:32;9.50;;;4.40;;
11197;SDS011;5655;48.744;9.162;2023-05-28T00:31:57;7.77;;;4.17;;
11197;SDS011;5655;48.744;9.162;2023-05-28T00:34:23;7.53;;;4.20;;
11197;SDS011;5655;48.744;9.162;2023-05-28T00:36:49;10.35;;;3.95;;
11197;SDS011;5655;48.744;9.162;2023-05-28T00:39:15;8.00;;;3.73;;
11197;SDS011;5655;48.744;9.162;2023-05-28T00:41:43;8.60;;;4.47;;
11197;SDS011;5655;48.744;9.162;2023-05-28T00:44:09;8.93;;;4.40;;
11197;SDS011;5655;48.744;9.162;2023-05-28T00:46:35;7.60;;;3.97;;
11197;SDS011;5655;48.744;9.162;2023-05-28T00:49:02;8.73;;;4.30;;
11197;SDS011;5655;48.744;9.162;2023-05-28T00:51:28;10.90;;;4.50;;
11197;SDS011;5655;48.744;9.162;2023-05-28T00:53:54;7.68;;;4.20;;
11197;SDS011;5655;48.744;9.162;2023-05-28T00:56:19;8.67;;;4.00;;
11197;SDS011;5655;48.744;9.162;2023-05-28T00:58:47;10.68;;;4.80;;
11197;SDS011;5655;48.744;9.162;2023-05-28T01:01:13;7.82;;;4.10;;
11197;SDS011;5655;48.744;9.162;2023-05-28T01:03:39;7.87;;;4.20;;
11197;SDS011;5655;48.744;9.162;2023-05-28T01:06:06;8.97;;;4.30;;
11197;SDS011;5655;48.744;9.162;2023-05-28T01:08:34;10.23;;;4.60;;
11197;SDS011;5655;48.744;9.162;2023-05-28T01:11:01;7.15;;;4.43;;
11197;SDS011;5655;48.744;9.162;2023-05-28T01:13:27;8.82;;;4.63;;
11197;SDS011;5655;48.744;9.162;2023-05-28T01:15:53;9.93;;;4.17;;
11197;SDS011;5655;48.744;9.162;2023-05-28T01:18:18;7.40;;;4.57;;
11197;SDS011;5655;48.744;9.162;2023-05-28T01:20:44;8.90;;;4.90;;
11197;SDS011;5655;48.744;9.162;2023-05-28T01:23:14;8.83;;;4.77;;
11197;SDS011;5655;48.744;9.162;2023-05-28T01:25:45;9.93;;;5.15;;
11197;SDS011;5655;48.744;9.162;2023-05-28T01:28:16;10.27;;;5.68;;
11197;SDS011;5655;48.744;9.162;2023-05-28T01:30:42;9.38;;;5.35;;
11197;SDS011;5655;48.744;9.162;2023-05-28T01:33:08;10.80;;;5.72;;
11197;SDS011;5655;48.744;9.162;2023-05-28T01:35:36;9.02;;;5.55;;
11197;SDS011;5655;48.744;9.162;2023-05-28T01:38:01;10.50;;;5.43;;
11197;SDS011;5655;48.744;9.162;2023-05-28T01:40:28;11.27;;;5.60;;
11197;SDS011;5655;48.744;9.162;2023-05-28T01:42:54;10.82;;;5.70;;
11197;SDS011;5655;48.744;9.162;2023-05-28T01:45:22;10.00;;;5.30;;
11197;SDS011;5655;48.744;9.162;2023-05-28T01:47:47;9.13;;;5.38;;
11197;SDS011;5655;48.744;9.162;2023-05-28T01:50:13;11.40;;;5.70;;
11197;SDS011;5655;48.744;9.162;2023-05-28T01:52:39;12.43;;;5.88;;
11197;SDS011;5655;48.744;9.162;2023-05-28T01:55:05;12.50;;;6.00;;
11197;SDS011;5655;48.744;9.162;2023-05-28T01:57:33;9.95;;;6.15;;
11197;SDS011;5655;48.744;9.162;2023-05-28T01:59:59;9.80;;;5.68;;
11197;SDS011;5655;48.744;9.162;2023-05-28T02:02:25;12.27;;;5.82;;
11197;SDS011;5655;48.744;9.162;2023-05-28T02:04:53;11.57;;;5.72;;
11197;SDS011;5655;48.744;9.162;2023-05-28T02:07:19;9.77;;;5.43;;
11197;SDS011;5655;48.744;9.162;2023-05-28T02:09:44;11.27;;;5.70;;
11197;SDS011;5655;48.744;9.162;2023-05-28T02:12:10;10.88;;;5.38;;
11197;SDS011;5655;48.744;9.162;2023-05-28T02:14:36;9.57;;;5.90;;
11197;SDS011;5655;48.744;9.162;2023-05-28T02:17:01;11.70;;;5.70;;
11197;SDS011;5655;48.744;9.162;2023-05-28T02:19:27;11.43;;;6.22;;
11197;SDS011;5655;48.744;9.162;2023-05-28T02:21:52;10.50;;;5.83;;
11197;SDS011;5655;48.744;9.162;2023-05-28T02:24:18;11.23;;;5.70;;
11197;SDS011;5655;48.744;9.162;2023-05-28T02:26:43;10.23;;;5.73;;
11197;SDS011;5655;48.744;9.162;2023-05-28T02:29:09;11.57;;;5.97;;
11197;SDS011;5655;48.744;9.162;2023-05-28T02:31:34;12.13;;;5.83;;
11197;SDS011;5655;48.744;9.162;2023-05-28T02:34:00;16.33;;;6.00;;
11197;SDS011;5655;48.744;9.162;2023-05-28T02:36:25;10.33;;;5.63;;
11197;SDS011;5655;48.744;9.162;2023-05-28T02:38:50;10.00;;;5.40;;
11197;SDS011;5655;48.744;9.162;2023-05-28T02:41:16;9.57;;;5.50;;
11197;SDS011;5655;48.744;9.162;2023-05-28T02:43:41;13.07;;;5.77;;
11197;SDS011;5655;48.744;9.162;2023-05-28T02:46:07;11.95;;;5.85;;
11197;SDS011;5655;48.744;9.162;2023-05-28T02:48:32;11.63;;;5.97;;
11197;SDS011;5655;48.744;9.162;2023-05-28T02:50:58;11.57;;;5.93;;
11197;SDS011;5655;48.744;9.162;2023-05-28T02:53:23;10.47;;;5.97;;
11197;SDS011;5655;48.744;9.162;2023-05-28T02:55:48;13.53;;;6.50;;
11197;SDS011;5655;48.744;9.162;2023-05-28T02:58:14;11.97;;;5.80;;
11197;SDS011;5655;48.744;9.162;2023-05-28T03:00:40;11.50;;;5.80;;
11197;SDS011;5655;48.744;9.162;2023-05-28T03:03:06;9.18;;;5.63;;
11197;SDS011;5655;48.744;9.162;2023-05-28T03:05:32;10.50;;;5.40;;
11197;SDS011;5655;48.744;9.162;2023-05-28T03:08:00;12.13;;;6.50;;
11197;SDS011;5655;48.744;9.162;2023-05-28T03:10:25;11.00;;;5.90;;
11197;SDS011;5655;48.744;9.162;2023-05-28T03:12:51;11.93;;;5.90;;
11197;SDS011;5655;48.744;9.162;2023-05-28T03:15:16;9.77;;;6.30;;
11197;SDS011;5655;48.744;9.162;2023-05-28T03:17:42;12.17;;;6.13;;
11197;SDS011;5655;48.744;9.162;2023-05-28T03:20:07;10.40;;;6.07;;
11197;SDS011;5655;48.744;9.162;2023-05-28T03:22:35;11.27;;;5.97;;
11197;SDS011;5655;48.744;9.162;2023-05-28T03:25:01;10.98;;;5.50;;
11197;SDS011;5655;48.744;9.162;2023-05-28T03:27:27;10.23;;;5.22;;
11197;SDS011;5655;48.744;9.162;2023-05-28T03:29:52;10.33;;;5.33;;
11197;SDS011;5655;48.744;9.162;2023-05-28T03:32:17;12.13;;;5.43;;
11197;SDS011;5655;48.744;9.162;2023-05-28T03:34:42;10.90;;;5.27;;
11197;SDS011;5655;48.744;9.162;2023-05-28T03:37:08;9.32;;;5.03;;
11197;SDS011;5655;48.744;9.162;2023-05-28T03:39:33;11.13;;;5.32;;
11197;SDS011;5655;48.744;9.162;2023-05-28T03:41:58;8.60;;;5.30;;
11197;SDS011;5655;48.744;9.162;2023-05-28T03:44:24;9.13;;;5.13;;
11197;SDS011;5655;48.744;9.162;2023-05-28T03:46:49;11.47;;;5.20;;
11197;SDS011;5655;48.744;9.162;2023-05-28T03:49:14;9.13;;;5.00;;
11197;SDS011;5655;48.744;9.162;2023-05-28T03:51:39;10.07;;;4.80;;
11197;SDS011;5655;48.744;9.162;2023-05-28T03:54:05;9.80;;;4.97;;
11197;SDS011;5655;48.744;9.162;2023-05-28T03:56:31;10.10;;;4.93;;
11197;SDS011;5655;48.744;9.162;2023-05-28T03:58:58;10.68;;;5.38;;
11197;SDS011;5655;48.744;9.162;2023-05-28T04:01:24;7.17;;;4.27;;
11197;SDS011;5655;48.744;9.162;2023-05-28T04:03:49;10.17;;;4.90;;
11197;SDS011;5655;48.744;9.162;2023-05-28T04:06:15;7.17;;;4.53;;
11197;SDS011;5655;48.744;9.162;2023-05-28T04:08:40;10.20;;;4.63;;
11197;SDS011;5655;48.744;9.162;2023-05-28T04:11:05;9.15;;;4.32;;
11197;SDS011;5655;48.744;9.162;2023-05-28T04:13:31;10.15;;;4.63;;
11197;SDS011;5655;48.744;9.162;2023-05-28T04:15:56;9.40;;;4.67;;
11197;SDS011;5655;48.744;9.162;2023-05-28T04:18:22;10.33;;;4.40;;
11197;SDS011;5655;48.744;9.162;2023-05-28T04:20:47;9.60;;;4.73;;
11197;SDS011;5655;48.744;9.162;2023-05-28T04:23:13;8.57;;;4.40;;
11197;SDS011;5655;48.744;9.162;2023-05-28T04:25:38;8.33;;;4.63;;
11197;SDS011;5655;48.744;9.162;2023-05-28T04:28:03;9.20;;;4.57;;
11197;SDS011;5655;48.744;9.162;2023-05-28T04:30:29;9.57;;;4.63;;
11197;SDS011;5655;48.744;9.162;2023-05-28T04:32:54;8.03;;;4.50;;
11197;SDS011;5655;48.744;9.162;2023-05-28T04:35:21;8.97;;;4.33;;
11197;SDS011;5655;48.744;9.162;2023-05-28T04:37:46;9.50;;;4.57;;
11197;SDS011;5655;48.744;9.162;2023-05-28T04:40:16;8.35;;;4.47;;
11197;SDS011;5655;48.744;9.162;2023-05-28T04:42:41;8.30;;;4.50;;
11197;SDS011;5655;48.744;9.162;2023-05-28T04:45:08;7.13;;;4.50;;
11197;SDS011;5655;48.744;9.162;2023-05-28T04:47:34;10.48;;;4.63;;
11197;SDS011;5655;48.744;9.162;2023-05-28T04:50:03;8.30;;;4.47;;
11197;SDS011;5655;48.744;9.162;2023-05-28T04:52:30;8.15;;;4.07;;
11197;SDS011;5655;48.744;9.162;2023-05-28T04:55:00;9.52;;;4.35;;
11197;SDS011;5655;48.744;9.162;2023-05-28T04:57:26;7.38;;;4.20;;
11197;SDS011;5655;48.744;9.162;2023-05-28T04:59:51;10.17;;;4.80;;
11197;SDS011;5655;48.744;9.162;2023-05-28T05:02:17;8.43;;;4.60;;
11197;SDS011;5655;48.744;9.162;2023-05-28T05:04:43;11.07;;;4.60;;
11197;SDS011;5655;48.744;9.162;2023-05-28T05:07:09;7.17;;;4.10;;
11197;SDS011;5655;48.744;9.162;2023-05-28T05:09:34;8.97;;;4.30;;
11197;SDS011;5655;48.744;9.162;2023-05-28T05:12:00;7.93;;;4.10;;
11197;SDS011;5655;48.744;9.162;2023-05-28T05:14:25;8.07;;;3.70;;
11197;SDS011;5655;48.744;9.162;2023-05-28T05:16:50;7.13;;;4.17;;
11197;SDS011;5655;48.744;9.162;2023-05-28T05:19:16;8.07;;;3.97;;
11197;SDS011;5655;48.744;9.162;2023-05-28T05:21:41;7.80;;;3.70;;
11197;SDS011;5655;48.744;9.162;2023-05-28T05:24:06;7.97;;;4.10;;
11197;SDS011;5655;48.744;9.162;2023-05-28T05:26:32;6.60;;;4.00;;
11197;SDS011;5655;48.744;9.162;2023-05-28T05:28:57;7.77;;;4.20;;
11197;SDS011;5655;48.744;9.162;2023-05-28T05:31:22;8.30;;;4.20;;
11197;SDS011;5655;48.744;9.162;2023-05-28T05:33:48;8.55;;;4.05;;
11197;SDS011;5655;48.744;9.162;2023-05-28T05:36:13;9.27;;;4.30;;
11197;SDS011;5655;48.744;9.162;2023-05-28T05:38:38;7.63;;;4.00;;
11197;SDS011;5655;48.744;9.162;2023-05-28T05:41:03;9.87;;;4.70;;
11197;SDS011;5655;48.744;9.162;2023-05-28T05:43:29;8.60;;;4.33;;
11197;SDS011;5655;48.744;9.162;2023-05-28T05:45:54;7.17;;;4.03;;
11197;SDS011;5655;48.744;9.162;2023-05-28T05:48:19;8.20;;;4.13;;
11197;SDS011;5655;48.744;9.162;2023-05-28T05:50:52;8.97;;;4.70;;
11197;SDS011;5655;48.744;9.162;2023-05-28T05:53:23;8.43;;;4.03;;
11197;SDS011;5655;48.744;9.162;2023-05-28T05:55:49;7.85;;;4.30;;
11197;SDS011;5655;48.744;9.162;2023-05-28T05:58:15;9.35;;;4.43;;
11197;SDS011;5655;48.744;9.162;2023-05-28T06:00:41;8.10;;;4.20;;
11197;SDS011;5655;48.744;9.162;2023-05-28T06:03:06;8.30;;;4.28;;
11197;SDS011;5655;48.744;9.162;2023-05-28T06:05:32;6.20;;;4.23;;
11197;SDS011;5655;48.744;9.162;2023-05-28T06:07:58;10.77;;;4.90;;
11197;SDS011;5655;48.744;9.162;2023-05-28T06:10:23;8.98;;;4.72;;
11197;SDS011;5655;48.744;9.162;2023-05-28T06:12:49;9.68;;;4.60;;
11197;SDS011;5655;48.744;9.162;2023-05-28T06:15:14;9.53;;;4.47;;
11197;SDS011;5655;48.744;9.162;2023-05-28T06:17:40;11.20;;;4.50;;
11197;SDS011;5655;48.744;9.162;2023-05-28T06:20:06;6.95;;;4.00;;
11197;SDS011;5655;48.744;9.162;2023-05-28T06:22:33;7.75;;;4.97;;
11197;SDS011;5655;48.744;9.162;2023-05-28T06:24:58;9.63;;;5.20;;
11197;SDS011;5655;48.744;9.162;2023-05-28T06:27:25;11.73;;;5.95;;
11197;SDS011;5655;48.744;9.162;2023-05-28T06:29:51;10.90;;;5.83;;
11197;SDS011;5655;48.744;9.162;2023-05-28T06:32:16;11.33;;;5.53;;
11197;SDS011;5655;48.744;9.162;2023-05-28T06:34:42;8.57;;;5.40;;
11197;SDS011;5655;48.744;9.162;2023-05-28T06:37:08;9.77;;;5.85;;
11197;SDS011;5655;48.744;9.162;2023-05-28T06:39:33;12.40;;;6.40;;
11197;SDS011;5655;48.744;9.162;2023-05-28T06:41:58;9.67;;;6.00;;
11197;SDS011;5655;48.744;9.162;2023-05-28T06:44:24;10.30;;;5.77;;
11197;SDS011;5655;48.744;9.162;2023-05-28T06:46:49;13.90;;;6.47;;
11197;SDS011;5655;48.744;9.162;2023-05-28T06:49:15;10.17;;;5.63;;
11197;SDS011;5655;48.744;9.162;2023-05-28T06:51:40;9.07;;;4.47;;
11197;SDS011;5655;48.744;9.162;2023-05-28T06:54:05;10.27;;;4.57;;
11197;SDS011;5655;48.744;9.162;2023-05-28T06:56:31;8.07;;;4.45;;
11197;SDS011;5655;48.744;9.162;2023-05-28T06:58:56;9.47;;;4.77;;
11197;SDS011;5655;48.744;9.162;2023-05-28T07:01:21;9.73;;;4.87;;
11197;SDS011;5655;48.744;9.162;2023-05-28T07:03:47;8.20;;;4.67;;
11197;SDS011;5655;48.744;9.162;2023-05-28T07:06:12;8.53;;;4.70;;
11197;SDS011;5655;48.744;9.162;2023-05-28T07:08:38;11.43;;;5.00;;
11197;SDS011;5655;48.744;9.162;2023-05-28T07:11:09;10.38;;;4.80;;
11197;SDS011;5655;48.744;9.162;2023-05-28T07:13:35;9.38;;;4.70;;
11197;SDS011;5655;48.744;9.162;2023-05-28T07:16:01;11.05;;;6.07;;
11197;SDS011;5655;48.744;9.162;2023-05-28T07:18:27;10.73;;;6.00;;
11197;SDS011;5655;48.744;9.162;2023-05-28T07:20:52;9.70;;;6.00;;
11197;SDS011;5655;48.744;9.162;2023-05-28T07:23:18;8.02;;;5.30;;
11197;SDS011;5655;48.744;9.162;2023-05-28T07:25:43;11.60;;;5.60;;
11197;SDS011;5655;48.744;9.162;2023-05-28T07:28:09;8.37;;;5.17;;
11197;SDS011;5655;48.744;9.162;2023-05-28T07:30:34;10.43;;;5.87;;
11197;SDS011;5655;48.744;9.162;2023-05-28T07:32:59;9.53;;;5.50;;
11197;SDS011;5655;48.744;9.162;2023-05-28T07:35:25;12.67;;;6.00;;
11197;SDS011;5655;48.744;9.162;2023-05-28T07:37:51;10.93;;;5.40;;
11197;SDS011;5655;48.744;9.162;2023-05-28T07:40:17;12.53;;;5.80;;
11197;SDS011;5655;48.744;9.162;2023-05-28T07:42:43;12.32;;;5.78;;
11197;SDS011;5655;48.744;9.162;2023-05-28T07:45:08;11.32;;;5.70;;
11197;SDS011;5655;48.744;9.162;2023-05-28T07:47:35;9.07;;;5.33;;
11197;SDS011;5655;48.744;9.162;2023-05-28T07:50:03;10.23;;;5.65;;
11197;SDS011;5655;48.744;9.162;2023-05-28T07:52:29;9.17;;;5.43;;
11197;SDS011;5655;48.744;9.162;2023-05-28T07:54:57;10.05;;;4.97;;
11197;SDS011;5655;48.744;9.162;2023-05-28T07:57:23;8.77;;;5.07;;
11197;SDS011;5655;48.744;9.162;2023-05-28T07:59:49;10.50;;;5.68;;
11197;SDS011;5655;48.744;9.162;2023-05-28T08:02:14;10.15;;;5.72;;
11197;SDS011;5655;48.744;9.162;2023-05-28T08:04:39;9.90;;;5.10;;
11197;SDS011;5655;48.744;9.162;2023-05-28T08:07:05;9.57;;;5.17;;
11197;SDS011;5655;48.744;9.162;2023-05-28T08:09:31;8.55;;;4.82;;
11197;SDS011;5655;48.744;9.162;2023-05-28T08:11:56;8.70;;;5.33;;
11197;SDS011;5655;48.744;9.162;2023-05-28T08:14:21;8.60;;;4.70;;
11197;SDS011;5655;48.744;9.162;2023-05-28T08:16:46;10.63;;;5.30;;
11197;SDS011;5655;48.744;9.162;2023-05-28T08:19:12;9.20;;;5.07;;
11197;SDS011;5655;48.744;9.162;2023-05-28T08:21:37;12.13;;;5.50;;
11197;SDS011;5655;48.744;9.162;2023-05-28T08:24:02;7.63;;;4.80;;
11197;SDS011;5655;48.744;9.162;2023-05-28T08:26:28;10.70;;;5.20;;
11197;SDS011;5655;48.744;9.162;2023-05-28T08:28:53;8.57;;;4.70;;
11197;SDS011;5655;48.744;9.162;2023-05-28T08:31:18;8.23;;;4.83;;
11197;SDS011;5655;48.744;9.162;2023-05-28T08:33:44;11.40;;;5.50;;
11197;SDS011;5655;48.744;9.162;2023-05-28T08:36:09;7.97;;;4.83;;
11197;SDS011;5655;48.744;9.162;2023-05-28T08:38:35;11.55;;;4.90;;
11197;SDS011;5655;48.744;9.162;2023-05-28T08:41:00;10.30;;;4.70;;
11197;SDS011;5655;48.744;9.162;2023-05-28T08:43:26;9.97;;;4.90;;
11197;SDS011;5655;48.744;9.162;2023-05-28T08:45:53;10.15;;;5.07;;
11197;SDS011;5655;48.744;9.162;2023-05-28T08:48:18;8.88;;;4.68;;
11197;SDS011;5655;48.744;9.162;2023-05-28T08:50:46;11.77;;;4.97;;
11197;SDS011;5655;48.744;9.162;2023-05-28T08:53:21;9.65;;;4.60;;
11197;SDS011;5655;48.744;9.162;2023-05-28T08:55:48;9.80;;;4.70;;
11197;SDS011;5655;48.744;9.162;2023-05-28T08:58:14;10.73;;;4.82;;
11197;SDS011;5655;48.744;9.162;2023-05-28T09:00:41;7.63;;;4.15;;
11197;SDS011;5655;48.744;9.162;2023-05-28T09:03:07;11.20;;;5.00;;
11197;SDS011;5655;48.744;9.162;2023-05-28T09:05:35;8.43;;;4.43;;
11197;SDS011;5655;48.744;9.162;2023-05-28T09:08:05;7.93;;;4.60;;
11197;SDS011;5655;48.744;9.162;2023-05-28T09:10:32;9.55;;;5.00;;
11197;SDS011;5655;48.744;9.162;2023-05-28T09:12:59;13.00;;;5.13;;
11197;SDS011;5655;48.744;9.162;2023-05-28T09:15:25;9.68;;;4.80;;
11197;SDS011;5655;48.744;9.162;2023-05-28T09:17:50;8.53;;;4.70;;
11197;SDS011;5655;48.744;9.162;2023-05-28T09:20:16;11.73;;;4.93;;
11197;SDS011;5655;48.744;9.162;2023-05-28T09:22:42;8.18;;;4.72;;
11197;SDS011;5655;48.744;9.162;2023-05-28T09:25:09;11.30;;;4.60;;
11197;SDS011;5655;48.744;9.162;2023-05-28T09:27:35;11.35;;;4.75;;
11197;SDS011;5655;48.744;9.162;2023-05-28T09:30:10;11.37;;;5.17;;
11197;SDS011;5655;48.744;9.162;2023-05-28T09:32:38;10.90;;;4.43;;
11197;SDS011;5655;48.744;9.162;2023-05-28T09:35:06;11.77;;;4.50;;
11197;SDS011;5655;48.744;9.162;2023-05-28T09:37:32;9.20;;;4.38;;
11197;SDS011;5655;48.744;9.162;2023-05-28T09:40:03;11.98;;;4.50;;
11197;SDS011;5655;48.744;9.162;2023-05-28T09:42:36;7.80;;;4.07;;
11197;SDS011;5655;48.744;9.162;2023-05-28T09:45:09;8.90;;;4.25;;
11197;SDS011;5655;48.744;9.162;2023-05-28T09:47:44;9.63;;;4.70;;
11197;SDS011;5655;48.744;9.162;2023-05-28T09:50:10;10.57;;;4.13;;
11197;SDS011;5655;48.744;9.162;2023-05-28T09:52:37;9.25;;;4.70;;
11197;SDS011;5655;48.744;9.162;2023-05-28T09:55:05;8.20;;;4.38;;
11197;SDS011;5655;48.744;9.162;2023-05-28T09:57:32;9.45;;;4.95;;
11197;SDS011;5655;48.744;9.162;2023-05-28T09:59:59;10.02;;;4.68;;
11197;SDS011;5655;48.744;9.162;2023-05-28T10:05:19;8.38;;;4.50;;
11197;SDS011;5655;48.744;9.162;2023-05-28T10:07:48;8.80;;;4.60;;
11197;SDS011;5655;48.744;9.162;2023-05-28T10:10:17;10.95;;;4.53;;
11197;SDS011;5655;48.744;9.162;2023-05-28T10:12:44;9.65;;;4.80;;
11197;SDS011;5655;48.744;9.162;2023-05-28T10:15:11;8.10;;;4.65;;
11197;SDS011;5655;48.744;9.162;2023-05-28T10:17:37;9.23;;;4.47;;
11197;SDS011;5655;48.744;9.162;2023-05-28T10:20:02;9.02;;;4.53;;
11197;SDS011;5655;48.744;9.162;2023-05-28T10:22:35;10.00;;;4.65;;
11197;SDS011;5655;48.744;9.162;2023-05-28T10:25:00;10.27;;;4.50;;
11197;SDS011;5655;48.744;9.162;2023-05-28T10:27:30;9.40;;;4.90;;
11197;SDS011;5655;48.744;9.162;2023-05-28T10:29:57;8.93;;;4.53;;
11197;SDS011;5655;48.744;9.162;2023-05-28T10:32:22;8.17;;;4.57;;
11197;SDS011;5655;48.744;9.162;2023-05-28T10:34:47;6.90;;;4.20;;
11197;SDS011;5655;48.744;9.162;2023-05-28T10:37:13;8.85;;;4.70;;
11197;SDS011;5655;48.744;9.162;2023-05-28T10:39:48;6.88;;;4.25;;
11197;SDS011;5655;48.744;9.162;2023-05-28T10:42:14;8.53;;;4.20;;
11197;SDS011;5655;48.744;9.162;2023-05-28T10:47:33;10.47;;;4.60;;
11197;SDS011;5655;48.744;9.162;2023-05-28T10:50:01;8.38;;;4.15;;
11197;SDS011;5655;48.744;9.162;2023-05-28T10:52:39;9.57;;;4.30;;
11197;SDS011;5655;48.744;9.162;2023-05-28T10:55:06;7.33;;;3.97;;
11197;SDS011;5655;48.744;9.162;2023-05-28T11:00:04;7.05;;;4.00;;
11197;SDS011;5655;48.744;9.162;2023-05-28T11:02:38;9.35;;;4.22;;
11197;SDS011;5655;48.744;9.162;2023-05-28T11:05:05;8.13;;;4.20;;
11197;SDS011;5655;48.744;9.162;2023-05-28T11:07:38;9.43;;;4.70;;
11197;SDS011;5655;48.744;9.162;2023-05-28T11:10:08;7.55;;;4.03;;
11197;SDS011;5655;48.744;9.162;2023-05-28T11:12:40;11.40;;;4.40;;
11197;SDS011;5655;48.744;9.162;2023-05-28T11:15:07;8.27;;;4.07;;
11197;SDS011;5655;48.744;9.162;2023-05-28T11:17:40;6.68;;;3.83;;
11197;SDS011;5655;48.744;9.162;2023-05-28T11:22:41;7.68;;;4.07;;
11197;SDS011;5655;48.744;9.162;2023-05-28T11:25:07;9.17;;;4.50;;
11197;SDS011;5655;48.744;9.162;2023-05-28T11:27:33;9.45;;;4.32;;
11197;SDS011;5655;48.744;9.162;2023-05-28T11:30:01;7.35;;;4.38;;
11197;SDS011;5655;48.744;9.162;2023-05-28T11:32:31;7.23;;;4.33;;
11197;SDS011;5655;48.744;9.162;2023-05-28T11:34:58;8.43;;;4.32;;
11197;SDS011;5655;48.744;9.162;2023-05-28T11:37:24;7.72;;;4.38;;
11197;SDS011;5655;48.744;9.162;2023-05-28T11:39:52;7.18;;;4.15;;
11197;SDS011;5655;48.744;9.162;2023-05-28T11:42:18;7.40;;;4.00;;
11197;SDS011;5655;48.744;9.162;2023-05-28T11:44:44;8.68;;;4.63;;
11197;SDS011;5655;48.744;9.162;2023-05-28T11:47:11;10.52;;;4.40;;
11197;SDS011;5655;48.744;9.162;2023-05-28T11:49:36;9.50;;;4.65;;
11197;SDS011;5655;48.744;9.162;2023-05-28T11:52:02;10.00;;;4.43;;
11197;SDS011;5655;48.744;9.162;2023-05-28T11:54:28;9.53;;;4.77;;
11197;SDS011;5655;48.744;9.162;2023-05-28T11:56:53;8.53;;;4.30;;
11197;SDS011;5655;48.744;9.162;2023-05-28T11:59:22;8.93;;;4.50;;
11197;SDS011;5655;48.744;9.162;2023-05-28T12:01:50;8.23;;;4.57;;
11197;SDS011;5655;48.744;9.162;2023-05-28T12:04:21;8.90;;;4.50;;
11197;SDS011;5655;48.744;9.162;2023-05-28T12:06:53;11.03;;;4.70;;
11197;SDS011;5655;48.744;9.162;2023-05-28T12:09:19;9.05;;;3.97;;
11197;SDS011;5655;48.744;9.162;2023-05-28T12:12:00;7.20;;;3.97;;
11197;SDS011;5655;48.744;9.162;2023-05-28T12:14:28;7.90;;;4.00;;
11197;SDS011;5655;48.744;9.162;2023-05-28T12:16:55;6.47;;;3.97;;
11197;SDS011;5655;48.744;9.162;2023-05-28T12:19:20;10.17;;;4.10;;
11197;SDS011;5655;48.744;9.162;2023-05-28T12:21:45;8.73;;;4.17;;
11197;SDS011;5655;48.744;9.162;2023-05-28T12:24:14;8.17;;;3.90;;
11197;SDS011;5655;48.744;9.162;2023-05-28T12:26:40;8.57;;;4.30;;
11197;SDS011;5655;48.744;9.162;2023-05-28T12:29:06;6.80;;;4.13;;
11197;SDS011;5655;48.744;9.162;2023-05-28T12:31:32;7.43;;;4.00;;
11197;SDS011;5655;48.744;9.162;2023-05-28T12:33:57;7.00;;;3.93;;
11197;SDS011;5655;48.744;9.162;2023-05-28T12:36:22;6.03;;;3.97;;
11197;SDS011;5655;48.744;9.162;2023-05-28T12:38:48;7.23;;;4.10;;
11197;SDS011;5655;48.744;9.162;2023-05-28T12:41:13;7.00;;;4.57;;
11197;SDS011;5655;48.744;9.162;2023-05-28T12:43:38;9.37;;;4.43;;
11197;SDS011;5655;48.744;9.162;2023-05-28T12:46:04;9.10;;;4.30;;
11197;SDS011;5655;48.744;9.162;2023-05-28T12:48:29;8.83;;;4.53;;
11197;SDS011;5655;48.744;9.162;2023-05-28T12:50:58;7.72;;;4.20;;
11197;SDS011;5655;48.744;9.162;2023-05-28T12:53:23;7.10;;;4.07;;
11197;SDS011;5655;48.744;9.162;2023-05-28T12:55:48;7.18;;;4.10;;
11197;SDS011;5655;48.744;9.162;2023-05-28T12:58:14;7.00;;;4.30;;
11197;SDS011;5655;48.744;9.162;2023-05-28T13:00:39;6.70;;;3.97;;
11197;SDS011;5655;48.744;9.162;2023-05-28T13:03:04;9.00;;;4.57;;
11197;SDS011;5655;48.744;9.162;2023-05-28T13:05:30;7.17;;;4.10;;
11197;SDS011;5655;48.744;9.162;2023-05-28T13:08:01;10.68;;;4.75;;
11197;SDS011;5655;48.744;9.162;2023-05-28T13:10:27;7.57;;;4.22;;
11197;SDS011;5655;48.744;9.162;2023-05-28T13:12:52;6.07;;;4.20;;
11197;SDS011;5655;48.744;9.162;2023-05-28T13:15:18;9.50;;;4.37;;
11197;SDS011;5655;48.744;9.162;2023-05-28T13:17:43;8.65;;;4.53;;
11197;SDS011;5655;48.744;9.162;2023-05-28T13:20:09;8.05;;;4.00;;
11197;SDS011;5655;48.744;9.162;2023-05-28T13:22:35;6.73;;;3.90;;
11197;SDS011;5655;48.744;9.162;2023-05-28T13:25:02;8.07;;;3.90;;
11197;SDS011;5655;48.744;9.162;2023-05-28T13:27:28;6.82;;;4.53;;
11197;SDS011;5655;48.744;9.162;2023-05-28T13:29:53;6.67;;;4.10;;
11197;SDS011;5655;48.744;9.162;2023-05-28T13:32:19;5.72;;;4.13;;
11197;SDS011;5655;48.744;9.162;2023-05-28T13:34:44;6.37;;;4.03;;
11197;SDS011;5655;48.744;9.162;2023-05-28T13:37:10;5.37;;;4.07;;
11197;SDS011;5655;48.744;9.162;2023-05-28T13:39:35;5.73;;;4.20;;
11197;SDS011;5655;48.744;9.162;2023-05-28T13:42:01;8.03;;;4.50;;
11197;SDS011;5655;48.744;9.162;2023-05-28T13:44:28;8.45;;;4.70;;
11197;SDS011;5655;48.744;9.162;2023-05-28T13:46:54;8.32;;;4.13;;
11197;SDS011;5655;48.744;9.162;2023-05-28T13:49:19;7.07;;;4.40;;
11197;SDS011;5655;48.744;9.162;2023-05-28T13:51:45;8.80;;;4.45;;
11197;SDS011;5655;48.744;9.162;2023-05-28T13:54:11;7.90;;;4.35;;
11197;SDS011;5655;48.744;9.162;2023-05-28T13:56:37;7.47;;;4.53;;
11197;SDS011;5655;48.744;9.162;2023-05-28T13:59:02;7.20;;;4.40;;
11197;SDS011;5655;48.744;9.162;2023-05-28T14:01:28;8.67;;;4.37;;
11197;SDS011;5655;48.744;9.162;2023-05-28T14:03:53;6.23;;;4.13;;
11197;SDS011;5655;48.744;9.162;2023-05-28T14:06:19;8.57;;;4.10;;
11197;SDS011;5655;48.744;9.162;2023-05-28T14:08:44;8.75;;;4.60;;
11197;SDS011;5655;48.744;9.162;2023-05-28T14:11:09;8.13;;;4.33;;
11197;SDS011;5655;48.744;9.162;2023-05-28T14:13:35;8.70;;;4.07;;
11197;SDS011;5655;48.744;9.162;2023-05-28T14:16:00;8.17;;;4.20;;
11197;SDS011;5655;48.744;9.162;2023-05-28T14:18:26;7.47;;;4.30;;
11197;SDS011;5655;48.744;9.162;2023-05-28T14:20:52;7.65;;;4.20;;
11197;SDS011;5655;48.744;9.162;2023-05-28T14:23:17;6.83;;;4.17;;
11197;SDS011;5655;48.744;9.162;2023-05-28T14:25:42;6.27;;;4.07;;
11197;SDS011;5655;48.744;9.162;2023-05-28T14:28:08;8.20;;;4.20;;
11197;SDS011;5655;48.744;9.162;2023-05-28T14:30:33;8.03;;;4.63;;
11197;SDS011;5655;48.744;9.162;2023-05-28T14:32:58;7.13;;;3.93;;
11197;SDS011;5655;48.744;9.162;2023-05-28T14:35:24;6.22;;;3.90;;
11197;SDS011;5655;48.744;9.162;2023-05-28T14:37:49;7.75;;;4.05;;
11197;SDS011;5655;48.744;9.162;2023-05-28T14:40:16;10.10;;;4.63;;
11197;SDS011;5655;48.744;9.162;2023-05-28T14:42:42;6.65;;;4.20;;
11197;SDS011;5655;48.744;9.162;2023-05-28T14:45:07;6.20;;;4.10;;
11197;SDS011;5655;48.744;9.162;2023-05-28T14:47:33;7.90;;;4.50;;
11197;SDS011;5655;48.744;9.162;2023-05-28T14:49:58;8.33;;;4.33;;
11197;SDS011;5655;48.744;9.162;2023-05-28T14:52:27;7.80;;;4.70;;
11197;SDS011;5655;48.744;9.162;2023-05-28T14:54:55;9.68;;;4.63;;
11197;SDS011;5655;48.744;9.162;2023-05-28T14:57:22;7.72;;;4.47;;
11197;SDS011;5655;48.744;9.162;2023-05-28T14:59:48;8.75;;;4.68;;
11197;SDS011;5655;48.744;9.162;2023-05-28T15:02:14;6.57;;;4.00;;